Terminal Aerodrome Forecast
Issued by NWS

Home | Current Version | Previous Version | Text Only | Print | Product List | Glossary On
Versions: 1 2 3 4 5 6 7 8 9 10 11 12
000
FTUS42 KTBW 211700
TAFLAL
TAF
KLAL 211739Z 2118/2218 26005KT P6SM SCT050 BKN250
     FM220000 VRB04KT P6SM FEW100 BKN250
     FM221400 03005KT P6SM FEW250=

USA.gov is the U.S. government's official web portal to all federal, state and local government web resources and services.